Terminal Aerodrome Forecast
Issued by NWS Cleveland, OH

Home | Current Version | Previous Version | Text Only | Print | Product List | Glossary On
Versions: 1 2 3 4 5 6 7 8 9 10 11 12 13 14 15 16 17 18 19 20 21 22 23 24 25 26 27 28 29
709
FTUS41 KCLE 090535
TAFCLE
TAF
KCLE 090535Z 0906/1012 26015G22KT 6SM -SN OVC015
      TEMPO 0906/0909 2SM -SHSN BKN008
     FM090900 27014G20KT 1SM -SHSN OVC008
     FM091400 27014G22KT 3SM -SHSN SCT008 OVC012
      TEMPO 0914/0918 1SM -SN
     FM092000 27014KT 3SM -SHSN SCT012 OVC020
     FM100300 25010KT 6SM -SN SCT015 OVC020=

USA.gov is the U.S. government's official web portal to all federal, state and local government web resources and services.